Time;durP1;ratioP1;P1;durP2;ratioP2;P2;SDS_P1;SDS_P2;PMS_P1;PMS_P2;Temp;Humidity;BMP_temperature;BMP_pressure;BME280_temperature;BME280_humidity;BME280_pressure;Samples;Min_cycle;Max_cycle;Signal;HPM_P1;HPM_P2
2023/07/19 00:01:55;;;;;;;6.60;4.90;;;;;;;21.53;95.38;97928.91;4199178;28;20695;-73
2023/07/19 00:03:58;;;;;;;7.20;5.10;;;;;;;21.51;95.96;97942.34;4204075;28;21066;-72
2023/07/19 00:06:02;;;;;;;7.47;5.67;;;;;;;21.51;96.17;97950.31;4199776;28;20740;-72
2023/07/19 00:08:05;;;;;;;5.63;4.87;;;;;;;21.50;96.64;97943.38;4197916;28;20732;-73
2023/07/19 00:10:09;;;;;;;7.40;5.57;;;;;;;21.52;96.71;97932.56;4207070;28;20656;-73
2023/07/19 00:12:13;;;;;;;7.90;5.27;;;;;;;21.54;96.31;97935.88;4203885;28;20688;-73
2023/07/19 00:14:16;;;;;;;7.20;4.93;;;;;;;21.52;95.68;97933.38;4206278;28;20710;-73
2023/07/19 00:16:20;;;;;;;9.73;5.07;;;;;;;21.48;96.21;97929.41;4208873;28;20698;-73
2023/07/19 00:18:23;;;;;;;9.80;5.53;;;;;;;21.44;95.80;97927.25;4206600;28;20650;-73
2023/07/19 00:20:26;;;;;;;6.70;4.70;;;;;;;21.41;95.55;97925.81;4202692;28;20650;-72
2023/07/19 00:22:29;;;;;;;6.70;5.17;;;;;;;21.39;96.56;97924.31;4195057;28;20699;-72
2023/07/19 00:24:33;;;;;;;7.00;4.90;;;;;;;21.34;96.57;97930.16;4204872;28;20662;-73
2023/07/19 00:26:36;;;;;;;5.70;4.80;;;;;;;21.30;95.72;97923.56;4186707;28;20647;-73
2023/07/19 00:28:40;;;;;;;6.50;5.00;;;;;;;21.27;95.86;97919.59;4195835;28;20657;-73
2023/07/19 00:30:43;;;;;;;6.53;5.20;;;;;;;21.24;96.13;97923.41;4188584;28;20634;-73
2023/07/19 00:32:47;;;;;;;7.00;5.50;;;;;;;21.24;96.06;97917.28;4202427;28;20653;-72
2023/07/19 00:34:50;;;;;;;6.43;5.40;;;;;;;21.23;96.91;97918.28;4201188;28;20647;-72
2023/07/19 00:36:54;;;;;;;7.60;5.30;;;;;;;21.22;97.02;97913.97;4205990;28;20669;-72
2023/07/19 00:38:57;;;;;;;7.90;5.20;;;;;;;21.23;96.67;97915.63;4201469;28;21265;-72
2023/07/19 00:40:59;;;;;;;7.70;5.80;;;;;;;21.20;97.58;97914.16;4203379;28;21027;-72
2023/07/19 00:43:02;;;;;;;7.30;5.10;;;;;;;21.17;97.71;97919.81;4189868;28;20677;-72
2023/07/19 00:45:07;;;;;;;7.00;5.60;;;;;;;21.17;97.41;97916.31;4217677;28;20660;-72
2023/07/19 00:47:28;;;;;;;7.23;5.50;;;;;;;21.15;96.38;97913.84;4191825;28;20646;-72
2023/07/19 00:49:32;;;;;;;9.47;5.80;;;;;;;21.14;96.74;97916.66;4190279;28;20692;-72
2023/07/19 00:51:35;;;;;;;6.23;5.33;;;;;;;21.13;98.03;97915.03;4199831;28;20719;-72
2023/07/19 00:53:39;;;;;;;7.77;5.57;;;;;;;21.13;96.86;97915.03;4202816;28;20653;-72
2023/07/19 00:55:42;;;;;;;7.57;5.10;;;;;;;21.14;97.86;97914.84;4201194;28;20689;-72
2023/07/19 00:57:45;;;;;;;7.30;5.03;;;;;;;21.12;97.91;97914.19;4201176;28;20661;-72
2023/07/19 00:59:48;;;;;;;6.00;5.20;;;;;;;21.10;97.06;97905.56;4200112;28;20697;-72
2023/07/19 01:01:53;;;;;;;6.13;5.53;;;;;;;21.08;96.44;97912.91;4216173;28;20775;-72
2023/07/19 01:03:56;;;;;;;6.63;5.63;;;;;;;21.08;96.82;97914.69;4198390;28;20645;-72
2023/07/19 01:06:00;;;;;;;6.80;4.70;;;;;;;21.07;97.65;97915.72;4202096;28;20664;-73
2023/07/19 01:08:03;;;;;;;6.30;5.00;;;;;;;21.05;97.92;97918.53;4205925;28;21678;-72
2023/07/19 01:10:07;;;;;;;9.67;4.40;;;;;;;21.04;96.61;97919.53;4205304;28;20644;-72
2023/07/19 01:12:11;;;;;;;6.40;5.10;;;;;;;21.02;97.55;97910.94;4204334;28;20686;-72
2023/07/19 01:14:15;;;;;;;6.00;4.77;;;;;;;21.01;97.04;97916.41;4203298;28;20670;-72
2023/07/19 01:16:18;;;;;;;7.83;4.80;;;;;;;21.02;96.72;97912.78;4202095;28;20640;-72
2023/07/19 01:18:23;;;;;;;7.27;5.13;;;;;;;20.99;96.78;97913.13;4212161;28;20649;-72
2023/07/19 01:20:26;;;;;;;6.57;5.40;;;;;;;20.99;98.37;97902.50;4195018;28;21039;-72
2023/07/19 01:22:32;;;;;;;9.17;5.67;;;;;;;20.99;98.33;97899.84;4202210;28;20648;-72
2023/07/19 01:24:35;;;;;;;7.60;5.20;;;;;;;21.00;98.15;97904.13;4189137;28;20653;-72
2023/07/19 01:26:38;;;;;;;5.67;5.07;;;;;;;20.99;98.25;97907.81;4198642;28;20749;-72
2023/07/19 01:28:42;;;;;;;7.23;5.37;;;;;;;20.96;97.10;97911.63;4202447;28;20661;-72
2023/07/19 01:30:45;;;;;;;7.47;5.00;;;;;;;20.95;96.53;97917.91;4196320;28;20732;-72
2023/07/19 01:32:48;;;;;;;5.77;5.07;;;;;;;20.95;97.17;97914.44;4200246;28;20657;-72
2023/07/19 01:34:51;;;;;;;6.80;5.50;;;;;;;20.95;96.67;97917.09;4203580;28;20658;-72
2023/07/19 01:36:54;;;;;;;6.67;5.00;;;;;;;20.94;97.93;97920.75;4198464;28;20668;-73
2023/07/19 01:38:59;;;;;;;6.50;4.83;;;;;;;20.92;96.77;97922.75;4198345;28;20752;-72
2023/07/19 01:41:02;;;;;;;8.17;5.20;;;;;;;20.91;97.65;97921.94;4200651;28;20701;-72
2023/07/19 01:43:05;;;;;;;8.90;5.80;;;;;;;20.89;96.78;97925.75;4203400;28;20657;-72
2023/07/19 01:45:09;;;;;;;8.13;4.70;;;;;;;20.88;97.90;97924.09;4199842;28;20657;-72
2023/07/19 01:47:13;;;;;;;7.17;5.10;;;;;;;20.83;97.55;97919.28;4216428;28;21265;-72
2023/07/19 01:49:16;;;;;;;7.40;5.60;;;;;;;20.77;97.03;97919.16;4220821;28;20697;-72
2023/07/19 01:51:19;;;;;;;6.60;5.30;;;;;;;20.69;96.33;97919.19;4198846;28;20749;-72
2023/07/19 01:53:23;;;;;;;6.70;5.10;;;;;;;20.68;97.19;97929.97;4203644;28;20751;-72
2023/07/19 01:55:29;;;;;;;6.20;5.17;;;;;;;20.64;97.60;97918.88;4221140;28;20733;-72
2023/07/19 01:57:34;;;;;;;6.00;4.93;;;;;;;20.62;97.48;97928.78;4204152;28;20754;-72
2023/07/19 01:59:37;;;;;;;8.17;5.43;;;;;;;20.62;96.42;97922.66;4202100;28;21312;-72
2023/07/19 02:01:39;;;;;;;10.87;5.97;;;;;;;20.61;97.24;97919.22;4220446;28;20673;-72
2023/07/19 02:03:43;;;;;;;6.77;5.47;;;;;;;20.61;98.18;97918.34;4205139;28;20668;-72
2023/07/19 02:05:56;;;;;;;6.90;5.00;;;;;;;20.60;97.90;97924.69;4209217;28;20648;-72
2023/07/19 02:08:00;;;;;;;7.33;5.67;;;;;;;20.55;96.78;97925.19;4213229;28;20653;-72
2023/07/19 02:10:03;;;;;;;5.70;4.83;;;;;;;20.52;96.80;97924.69;4207396;28;20744;-72
2023/07/19 02:12:09;;;;;;;6.63;5.20;;;;;;;20.50;97.93;97929.34;4208963;28;20735;-72
2023/07/19 02:14:12;;;;;;;5.30;4.50;;;;;;;20.50;96.25;97924.03;4214423;28;20652;-72
2023/07/19 02:16:16;;;;;;;6.63;5.40;;;;;;;20.47;96.13;97921.72;4204710;28;20794;-72
2023/07/19 02:18:19;;;;;;;6.60;5.17;;;;;;;20.44;95.60;97927.34;4207440;28;20648;-72
2023/07/19 02:20:22;;;;;;;6.40;5.27;;;;;;;20.35;96.22;97929.19;4201381;28;20650;-72
2023/07/19 02:22:26;;;;;;;6.43;5.53;;;;;;;20.31;95.17;97931.53;4188959;28;21058;-72
2023/07/19 02:24:29;;;;;;;6.03;5.00;;;;;;;20.27;96.17;97931.03;4203829;28;20660;-72
2023/07/19 02:26:32;;;;;;;6.10;5.33;;;;;;;20.27;96.32;97927.56;4193155;28;20742;-72
2023/07/19 02:28:37;;;;;;;7.87;6.10;;;;;;;20.24;98.08;97926.06;4208142;28;20814;-72
2023/07/19 02:30:41;;;;;;;6.70;4.93;;;;;;;20.23;96.83;97921.75;4198277;28;20643;-72
2023/07/19 02:32:44;;;;;;;7.47;5.60;;;;;;;20.22;96.66;97924.59;4205903;28;20999;-72
2023/07/19 02:34:47;;;;;;;7.53;5.80;;;;;;;20.21;96.50;97921.13;4220278;28;20639;-72
2023/07/19 02:36:51;;;;;;;7.20;5.70;;;;;;;20.19;96.18;97915.16;4194888;28;20766;-72
2023/07/19 02:38:54;;;;;;;7.90;5.17;;;;;;;20.17;96.21;97929.56;4212706;28;21141;-72
2023/07/19 02:41:00;;;;;;;7.30;5.70;;;;;;;20.14;96.22;97927.25;4217619;28;20672;-72
2023/07/19 02:43:04;;;;;;;8.47;6.00;;;;;;;20.08;96.67;97930.56;4204099;28;20655;-73
2023/07/19 02:45:09;;;;;;;6.90;5.03;;;;;;;20.03;95.88;97936.38;4193210;28;20649;-72
2023/07/19 02:47:13;;;;;;;6.83;5.00;;;;;;;20.00;95.64;97930.59;4205661;28;20681;-72
2023/07/19 02:49:16;;;;;;;7.60;4.93;;;;;;;19.97;95.56;97928.28;4188655;28;20684;-72
2023/07/19 02:51:20;;;;;;;7.07;5.03;;;;;;;19.92;96.19;97941.16;4212142;28;20684;-72
2023/07/19 02:53:22;;;;;;;5.97;4.97;;;;;;;19.92;96.99;97938.50;4203884;28;21301;-72
2023/07/19 02:55:25;;;;;;;8.10;6.13;;;;;;;19.92;97.36;97941.16;4202757;28;21037;-72
2023/07/19 02:57:29;;;;;;;6.40;5.50;;;;;;;19.97;98.38;97950.28;4188503;28;21223;-72
2023/07/19 02:59:32;;;;;;;8.17;5.93;;;;;;;19.98;98.91;97951.94;4206993;28;20647;-72
2023/07/19 03:01:37;;;;;;;8.73;5.33;;;;;;;20.01;98.89;97942.81;4210381;28;20662;-72
2023/07/19 03:03:41;;;;;;;8.50;5.53;;;;;;;20.00;96.97;97954.41;4201441;28;20644;-72
2023/07/19 03:05:45;;;;;;;8.33;5.47;;;;;;;20.00;97.57;97952.59;4183608;28;21065;-72
2023/07/19 03:07:48;;;;;;;9.90;5.83;;;;;;;19.99;96.87;97961.50;4188836;28;20646;-72
2023/07/19 03:09:51;;;;;;;7.40;4.87;;;;;;;19.99;97.88;97969.47;4191087;28;20752;-72
2023/07/19 03:11:54;;;;;;;7.23;5.27;;;;;;;19.98;97.32;97961.69;4205699;28;21249;-72
2023/07/19 03:13:58;;;;;;;7.33;5.20;;;;;;;19.91;96.98;97955.41;4200051;28;20654;-72
2023/07/19 03:16:01;;;;;;;6.77;4.63;;;;;;;19.85;95.38;97956.03;4207426;28;20690;-72
2023/07/19 03:18:07;;;;;;;6.10;4.80;;;;;;;19.79;95.66;97961.16;4201862;28;20659;-72
2023/07/19 03:20:11;;;;;;;8.27;5.07;;;;;;;19.76;95.78;97967.59;4185346;28;20670;-72
2023/07/19 03:22:14;;;;;;;6.47;4.90;;;;;;;19.72;96.69;97963.63;4199694;28;20660;-72
2023/07/19 03:24:17;;;;;;;5.67;4.67;;;;;;;19.72;97.11;97962.81;4202225;28;20647;-72
2023/07/19 03:26:21;;;;;;;5.67;4.50;;;;;;;19.71;95.82;97971.72;4204274;28;20751;-72
2023/07/19 03:28:25;;;;;;;7.73;5.30;;;;;;;19.71;96.11;97972.56;4204593;28;20671;-72
2023/07/19 03:30:28;;;;;;;7.53;5.53;;;;;;;19.74;97.27;97977.53;4183781;28;20653;-72
2023/07/19 03:32:33;;;;;;;6.20;4.97;;;;;;;19.74;95.86;97977.53;4216128;28;20674;-72
2023/07/19 03:34:38;;;;;;;7.13;4.80;;;;;;;19.74;97.46;97979.34;4201335;28;20667;-72
2023/07/19 03:36:41;;;;;;;8.60;5.00;;;;;;;19.73;96.81;97983.00;4186841;28;20668;-72
2023/07/19 03:38:43;;;;;;;5.77;4.70;;;;;;;19.71;96.56;97983.16;4202152;28;20654;-72
2023/07/19 03:40:47;;;;;;;5.90;5.00;;;;;;;19.72;97.67;97981.34;4204740;28;20724;-72
2023/07/19 03:42:50;;;;;;;6.60;5.80;;;;;;;19.70;95.87;97972.75;4201552;28;20721;-72
2023/07/19 03:44:53;;;;;;;8.33;4.70;;;;;;;19.66;96.66;97984.63;4216433;28;20651;-72
2023/07/19 03:46:57;;;;;;;7.63;6.50;;;;;;;19.65;97.44;97981.16;4206964;28;20646;-72
2023/07/19 03:49:01;;;;;;;7.90;5.43;;;;;;;19.64;97.11;97982.16;4208172;28;20708;-72
2023/07/19 03:51:05;;;;;;;7.40;5.10;;;;;;;19.64;97.07;97982.16;4200005;28;20731;-72
2023/07/19 03:53:09;;;;;;;8.17;5.83;;;;;;;19.64;96.66;97986.63;4198129;28;20754;-72
2023/07/19 03:55:12;;;;;;;7.80;5.10;;;;;;;19.63;97.43;97988.44;4203897;28;21330;-72
2023/07/19 03:57:15;;;;;;;8.60;4.97;;;;;;;19.61;97.71;97992.25;4197477;28;20644;-72
2023/07/19 03:59:18;;;;;;;7.57;6.10;;;;;;;19.61;97.31;97989.59;4197438;28;20663;-72
2023/07/19 04:01:21;;;;;;;6.60;5.10;;;;;;;19.60;96.18;97993.22;4216540;28;21093;-73
2023/07/19 04:03:26;;;;;;;7.47;5.47;;;;;;;19.60;97.46;97990.56;4217196;28;20737;-72
2023/07/19 04:05:29;;;;;;;6.90;5.23;;;;;;;19.58;96.14;97985.44;4203589;28;20747;-72
2023/07/19 04:07:33;;;;;;;7.00;5.30;;;;;;;19.58;95.88;97993.38;4214834;28;20634;-72
2023/07/19 04:09:36;;;;;;;6.80;5.30;;;;;;;19.57;97.28;97986.44;4205353;28;20749;-72
2023/07/19 04:11:40;;;;;;;6.37;5.30;;;;;;;19.56;97.57;97992.72;4201877;28;21209;-72
2023/07/19 04:13:43;;;;;;;7.30;5.40;;;;;;;19.58;97.27;97989.91;4191696;28;21006;-72
2023/07/19 04:15:46;;;;;;;7.23;5.37;;;;;;;19.57;97.17;97994.38;4214908;28;20746;-72
2023/07/19 04:17:49;;;;;;;9.87;5.50;;;;;;;19.56;98.09;97987.44;4199887;28;20654;-72
2023/07/19 04:19:53;;;;;;;7.73;5.50;;;;;;;19.58;97.47;97990.75;4201443;28;20654;-72
2023/07/19 04:21:55;;;;;;;7.83;5.53;;;;;;;19.59;96.61;97992.41;4200892;28;20665;-72
2023/07/19 04:24:00;;;;;;;8.23;5.23;;;;;;;19.61;97.81;97993.06;4190368;28;20648;-72
2023/07/19 04:26:05;;;;;;;6.80;5.00;;;;;;;19.64;97.35;97990.09;4197530;28;21230;-72
2023/07/19 04:28:08;;;;;;;6.73;5.50;;;;;;;19.64;96.55;97984.78;4216456;28;20653;-72
2023/07/19 04:30:12;;;;;;;9.13;6.23;;;;;;;19.62;96.33;97986.78;4186145;28;20661;-72
2023/07/19 04:32:16;;;;;;;7.47;5.37;;;;;;;19.62;96.54;97986.78;4216228;28;20638;-72
2023/07/19 04:34:20;;;;;;;7.37;5.17;;;;;;;19.63;97.30;97992.91;4203282;28;20652;-72
2023/07/19 04:36:24;;;;;;;7.90;5.73;;;;;;;19.63;96.31;97993.72;4200922;28;20651;-72
2023/07/19 04:38:28;;;;;;;6.97;5.23;;;;;;;19.64;97.73;97989.28;4221605;28;20646;-73
2023/07/19 04:40:32;;;;;;;8.23;5.67;;;;;;;19.64;97.71;97994.56;4198425;28;21056;-72
2023/07/19 04:42:37;;;;;;;8.47;6.00;;;;;;;19.64;97.43;97992.75;4217681;28;20642;-72
2023/07/19 04:44:40;;;;;;;5.50;4.50;;;;;;;19.65;96.96;97985.63;4190575;28;20641;-72
2023/07/19 04:46:42;;;;;;;7.57;5.90;;;;;;;19.65;96.65;97990.91;4203860;28;20727;-72
2023/07/19 04:48:46;;;;;;;6.60;5.43;;;;;;;19.66;96.96;97987.28;4203413;28;20989;-72
2023/07/19 04:50:52;;;;;;;11.83;5.93;;;;;;;19.68;98.10;97999.38;4202582;28;20651;-72
2023/07/19 04:52:56;;;;;;;10.53;5.70;;;;;;;19.71;96.26;97999.03;4203289;28;20674;-72
2023/07/19 04:54:59;;;;;;;7.60;5.80;;;;;;;19.72;97.19;97995.38;4202627;28;20643;-72
2023/07/19 04:57:05;;;;;;;9.03;5.33;;;;;;;19.75;96.95;97992.41;4197271;28;20658;-72
2023/07/19 04:59:09;;;;;;;7.80;5.57;;;;;;;19.78;97.94;98000.03;4201690;28;20646;-72
2023/07/19 05:01:12;;;;;;;9.80;6.00;;;;;;;19.83;96.82;97995.09;4200947;28;21117;-72
2023/07/19 05:03:16;;;;;;;7.07;5.67;;;;;;;19.88;96.25;97995.47;4186900;28;21087;-72
2023/07/19 05:05:20;;;;;;;5.97;5.23;;;;;;;19.93;96.25;97987.84;4201190;28;20657;-72
2023/07/19 05:07:23;;;;;;;7.50;5.70;;;;;;;19.97;96.86;97994.47;4178299;28;20648;-72
2023/07/19 05:09:26;;;;;;;8.17;5.87;;;;;;;20.00;95.42;97997.59;4213554;28;20649;-72
2023/07/19 05:11:29;;;;;;;7.30;5.30;;;;;;;20.05;97.05;97983.88;4200898;28;20632;-72
2023/07/19 05:13:34;;;;;;;10.23;5.70;;;;;;;20.10;95.80;97986.84;4202244;28;20658;-72
2023/07/19 05:15:36;;;;;;;7.20;5.90;;;;;;;20.16;95.74;97987.03;4199428;28;21065;-72
2023/07/19 05:17:43;;;;;;;8.90;5.83;;;;;;;20.16;96.55;97976.44;4204261;28;20737;-72
2023/07/19 05:19:46;;;;;;;9.47;6.50;;;;;;;20.17;95.72;97978.06;4203894;28;20673;-72
2023/07/19 05:21:50;;;;;;;10.37;6.03;;;;;;;20.21;95.08;97971.44;4203814;28;20661;-72
2023/07/19 05:23:53;;;;;;;7.17;5.73;;;;;;;20.29;95.35;97968.78;4213271;28;20649;-72
2023/07/19 05:25:56;;;;;;;9.70;6.10;;;;;;;20.34;95.84;97975.25;4198574;28;21069;-72
2023/07/19 05:27:59;;;;;;;9.73;6.83;;;;;;;20.42;95.60;97969.94;4202237;28;20664;-72
2023/07/19 05:30:05;;;;;;;6.70;5.30;;;;;;;20.51;97.15;97976.88;4204579;28;20654;-72
2023/07/19 05:32:09;;;;;;;8.87;6.13;;;;;;;20.59;96.33;97966.25;4201064;28;20692;-72
2023/07/19 05:34:12;;;;;;;7.80;5.83;;;;;;;20.66;97.17;97977.84;4202441;28;21233;-72
2023/07/19 05:36:15;;;;;;;7.23;5.30;;;;;;;20.73;96.24;97975.34;4198356;28;20775;-72
2023/07/19 05:38:17;;;;;;;6.73;5.80;;;;;;;20.81;95.77;97976.19;4200182;28;20724;-72
2023/07/19 05:40:21;;;;;;;7.47;5.00;;;;;;;20.91;94.94;97968.81;4201617;28;21233;-72
2023/07/19 05:42:24;;;;;;;8.70;6.90;;;;;;;21.03;95.95;97978.91;4205929;28;20660;-72
2023/07/19 05:44:27;;;;;;;10.23;6.23;;;;;;;21.17;94.58;97980.00;4202695;28;21255;-72
2023/07/19 05:46:33;;;;;;;7.43;6.10;;;;;;;21.30;94.81;97987.25;4201563;28;21020;-72
2023/07/19 05:48:37;;;;;;;8.93;5.80;;;;;;;21.52;93.88;97983.81;4201220;28;20647;-72
2023/07/19 05:50:40;;;;;;;8.03;5.73;;;;;;;21.79;95.12;97994.78;4195605;28;20683;-72
2023/07/19 05:52:43;;;;;;;7.60;5.90;;;;;;;22.10;94.58;97992.06;4199277;28;20757;-72
2023/07/19 05:54:46;;;;;;;7.37;5.30;;;;;;;22.39;92.63;98004.47;4200550;28;21210;-72
2023/07/19 05:56:51;;;;;;;7.33;5.50;;;;;;;22.68;91.03;98003.69;4202406;28;21803;-72
2023/07/19 05:58:54;;;;;;;7.47;6.50;;;;;;;22.96;89.97;98009.06;4200279;28;21232;-72
2023/07/19 06:00:58;;;;;;;7.70;6.17;;;;;;;23.23;87.96;98011.09;4199600;28;20661;-73
2023/07/19 06:03:03;;;;;;;7.23;5.80;;;;;;;23.49;87.77;98008.75;4204358;28;21314;-72
2023/07/19 06:05:08;;;;;;;7.37;5.23;;;;;;;23.75;86.72;98013.41;4194654;28;20644;-72
2023/07/19 06:07:11;;;;;;;8.10;5.87;;;;;;;24.02;85.83;98014.50;4198939;28;20724;-73
2023/07/19 06:09:14;;;;;;;8.00;6.27;;;;;;;24.23;84.57;98008.16;4200611;28;20634;-72
2023/07/19 06:11:17;;;;;;;6.87;5.33;;;;;;;24.46;84.19;98011.50;4192765;28;20648;-72
2023/07/19 06:13:21;;;;;;;7.43;4.90;;;;;;;24.69;82.34;98012.88;4200557;28;20657;-73
2023/07/19 06:15:26;;;;;;;8.17;5.80;;;;;;;24.80;81.00;98016.88;4202371;28;20732;-73
2023/07/19 06:17:29;;;;;;;8.93;5.30;;;;;;;24.93;81.36;98017.78;4213683;28;20915;-72
2023/07/19 06:19:33;;;;;;;7.60;6.60;;;;;;;25.07;80.45;98021.41;4204319;28;20677;-73
2023/07/19 06:21:37;;;;;;;6.73;5.47;;;;;;;25.21;80.11;98024.78;4198872;28;20660;-72
2023/07/19 06:23:40;;;;;;;6.97;5.10;;;;;;;25.37;80.34;98035.13;4198846;28;20650;-72
2023/07/19 06:25:43;;;;;;;5.73;5.13;;;;;;;25.57;79.39;98022.69;4198584;28;20712;-72
2023/07/19 06:27:46;;;;;;;5.87;4.40;;;;;;;25.74;78.66;98032.88;4203218;28;21187;-73
2023/07/19 06:29:49;;;;;;;7.07;5.10;;;;;;;25.96;78.13;98039.72;4204749;28;20706;-72
2023/07/19 06:31:52;;;;;;;5.97;5.37;;;;;;;26.18;77.21;98023.31;4207825;28;20673;-73
2023/07/19 06:33:55;;;;;;;7.00;4.60;;;;;;;26.35;76.06;98029.13;4211204;28;21197;-74
2023/07/19 06:36:03;;;;;;;7.30;4.90;;;;;;;26.56;74.98;98027.09;4206285;28;21262;-73
2023/07/19 06:38:06;;;;;;;5.53;4.80;;;;;;;26.73;73.50;98029.16;4199720;28;20653;-73
2023/07/19 06:40:10;;;;;;;5.93;5.13;;;;;;;26.96;72.92;98024.22;4195382;28;20806;-72
2023/07/19 06:42:14;;;;;;;5.60;4.77;;;;;;;27.10;71.63;98034.69;4187327;28;20707;-73
2023/07/19 06:44:17;;;;;;;6.17;4.60;;;;;;;27.28;70.17;98024.16;4203154;28;20642;-73
2023/07/19 06:46:20;;;;;;;5.10;4.43;;;;;;;27.52;69.62;98025.34;4215451;28;20681;-73
2023/07/19 06:48:23;;;;;;;6.70;5.10;;;;;;;27.75;69.03;98031.84;4218796;28;21244;-73
2023/07/19 06:50:26;;;;;;;5.33;3.90;;;;;;;27.97;69.21;98035.88;4203989;28;20656;-73
2023/07/19 06:52:31;;;;;;;7.20;4.30;;;;;;;28.13;69.23;98036.22;4202918;28;20660;-73
2023/07/19 06:54:34;;;;;;;5.60;4.50;;;;;;;28.30;69.89;98037.38;4204064;28;20645;-73
2023/07/19 06:56:37;;;;;;;6.30;4.80;;;;;;;28.47;69.92;98044.66;4203467;28;21010;-73
2023/07/19 06:58:40;;;;;;;5.47;4.70;;;;;;;28.56;67.10;98038.00;4203104;28;21225;-73
2023/07/19 07:00:43;;;;;;;5.40;4.53;;;;;;;28.52;66.53;98037.63;4202760;28;20650;-73
2023/07/19 07:02:46;;;;;;;6.83;4.90;;;;;;;28.45;66.65;98027.16;4206266;28;20667;-73
2023/07/19 07:04:50;;;;;;;7.40;4.67;;;;;;;28.55;66.59;98044.41;4197383;28;20646;-73
2023/07/19 07:06:53;;;;;;;5.43;4.60;;;;;;;28.68;67.33;98031.72;4201519;28;20643;-73
2023/07/19 07:08:58;;;;;;;5.90;5.30;;;;;;;28.87;66.74;98041.50;4198040;28;20702;-73
2023/07/19 07:11:01;;;;;;;6.90;4.77;;;;;;;28.95;65.91;98043.91;4218913;28;21090;-73
2023/07/19 07:13:04;;;;;;;6.93;5.27;;;;;;;28.89;65.57;98035.91;4204996;28;20652;-73
2023/07/19 07:15:08;;;;;;;5.30;4.57;;;;;;;28.94;66.02;98028.00;4202370;28;21307;-73
2023/07/19 07:17:11;;;;;;;7.33;4.80;;;;;;;29.08;64.78;98033.84;4203211;28;21233;-73
2023/07/19 07:19:14;;;;;;;7.40;4.40;;;;;;;29.23;65.30;98034.34;4204423;28;20654;-74
2023/07/19 07:21:18;;;;;;;5.63;5.07;;;;;;;29.35;65.43;98035.25;4209521;28;21115;-73
2023/07/19 07:23:22;;;;;;;7.17;4.90;;;;;;;29.45;64.74;98023.97;4215174;28;20662;-73
2023/07/19 07:25:26;;;;;;;5.67;4.20;;;;;;;29.60;64.26;98030.63;4189635;28;21111;-73
2023/07/19 07:27:29;;;;;;;5.47;4.10;;;;;;;29.67;64.86;98024.13;4204845;28;20725;-73
2023/07/19 07:29:33;;;;;;;5.97;5.00;;;;;;;29.82;64.32;98021.09;4199898;28;20649;-73
2023/07/19 07:31:36;;;;;;;6.80;5.40;;;;;;;29.94;64.33;98026.28;4198937;28;20692;-73
2023/07/19 07:33:40;;;;;;;7.07;4.80;;;;;;;30.02;64.00;98023.25;4200954;28;20640;-73
2023/07/19 07:35:43;;;;;;;7.50;4.60;;;;;;;30.07;63.51;98020.72;4197678;28;20644;-73
2023/07/19 07:37:46;;;;;;;5.83;5.23;;;;;;;30.01;62.88;98013.56;4205955;28;20742;-73
2023/07/19 07:39:49;;;;;;;5.67;4.53;;;;;;;30.06;62.87;98010.19;4203636;28;20679;-73
2023/07/19 07:41:54;;;;;;;6.87;5.10;;;;;;;30.19;62.99;98018.06;4204534;28;20638;-73
2023/07/19 07:43:57;;;;;;;5.97;4.80;;;;;;;30.28;63.75;98017.53;4200104;28;20661;-74
2023/07/19 07:46:01;;;;;;;7.17;4.73;;;;;;;30.36;62.35;98014.53;4198370;28;20661;-74
2023/07/19 07:48:05;;;;;;;9.07;5.30;;;;;;;30.40;61.85;98020.28;4196265;28;20660;-74
2023/07/19 07:50:09;;;;;;;5.73;4.43;;;;;;;30.37;62.29;98008.09;4196519;28;20658;-74
2023/07/19 07:52:15;;;;;;;5.80;4.53;;;;;;;30.46;62.62;98012.06;4194061;28;20650;-74
2023/07/19 07:54:17;;;;;;;6.03;4.60;;;;;;;30.49;61.95;98008.91;4194396;28;21391;-73
2023/07/19 07:56:22;;;;;;;9.83;7.00;;;;;;;30.51;62.53;97993.38;4199239;28;20639;-74
2023/07/19 07:58:26;;;;;;;5.73;4.13;;;;;;;30.61;62.16;98001.69;4195661;28;20679;-73
2023/07/19 08:00:29;;;;;;;4.90;4.40;;;;;;;30.67;62.26;98000.75;4203949;28;20658;-74
2023/07/19 08:02:32;;;;;;;5.33;4.00;;;;;;;30.67;61.26;97989.97;4201457;28;20693;-73
2023/07/19 08:04:36;;;;;;;5.10;4.60;;;;;;;30.72;61.30;97988.25;4202073;28;20733;-73
2023/07/19 08:06:39;;;;;;;4.80;3.90;;;;;;;30.60;61.72;97990.09;4202538;28;20674;-73
2023/07/19 08:08:42;;;;;;;5.70;4.20;;;;;;;30.44;61.52;97995.34;4204009;28;21261;-73
2023/07/19 08:10:45;;;;;;;4.53;3.83;;;;;;;30.38;62.11;98004.34;4200468;28;20649;-73
2023/07/19 08:12:48;;;;;;;7.60;4.60;;;;;;;30.45;62.75;98000.50;4202127;28;20651;-73
2023/07/19 08:14:53;;;;;;;5.17;4.53;;;;;;;30.64;62.63;97999.38;4200885;28;21183;-73
2023/07/19 08:16:56;;;;;;;5.63;4.20;;;;;;;30.82;62.24;97999.25;4189326;28;20680;-73
2023/07/19 08:19:03;;;;;;;6.03;4.83;;;;;;;30.99;61.83;98006.44;4201734;28;20658;-73
2023/07/19 08:21:07;;;;;;;6.03;4.50;;;;;;;31.06;60.65;98001.78;4203263;28;21216;-73
2023/07/19 08:23:20;;;;;;;14.13;5.33;;;;;;;31.16;60.96;97991.19;4216091;28;21239;-73
2023/07/19 08:25:24;;;;;;;5.97;3.53;;;;;;;31.31;60.70;97996.91;4215079;28;20703;-73
2023/07/19 08:27:30;;;;;;;7.00;4.53;;;;;;;31.39;59.45;98002.78;4203955;28;21274;-73
2023/07/19 08:29:33;;;;;;;5.03;4.23;;;;;;;31.50;59.34;98003.84;4200150;28;20655;-73
2023/07/19 08:31:38;;;;;;;4.97;3.40;;;;;;;31.64;59.33;97999.81;4195832;28;20661;-73
2023/07/19 08:33:41;;;;;;;5.00;3.63;;;;;;;31.70;58.14;97994.28;4202219;28;21333;-73
2023/07/19 08:35:44;;;;;;;9.50;4.33;;;;;;;31.73;57.81;97993.81;4200544;28;20655;-73
2023/07/19 08:37:47;;;;;;;4.67;3.80;;;;;;;31.77;57.72;97994.97;4200325;28;20657;-73
2023/07/19 08:39:51;;;;;;;6.97;4.10;;;;;;;31.74;58.74;97989.22;4200801;28;20715;-73
2023/07/19 08:41:54;;;;;;;6.03;3.70;;;;;;;31.75;59.84;97985.47;4201259;28;20674;-73
2023/07/19 08:43:57;;;;;;;5.90;3.50;;;;;;;31.81;59.59;97988.03;4203848;28;20666;-73
2023/07/19 08:46:00;;;;;;;4.83;4.03;;;;;;;31.85;58.30;97983.78;4200948;28;20655;-73
2023/07/19 08:48:06;;;;;;;4.10;3.47;;;;;;;31.79;57.42;97975.84;4201460;28;20697;-73
2023/07/19 08:50:11;;;;;;;4.17;3.40;;;;;;;31.66;57.07;97976.13;4187219;28;20662;-73
2023/07/19 08:52:15;;;;;;;4.00;3.60;;;;;;;31.61;58.55;97970.63;4200815;28;20750;-73
2023/07/19 08:54:18;;;;;;;6.03;3.07;;;;;;;31.74;57.96;97968.47;4200980;28;21391;-73
2023/07/19 08:56:22;;;;;;;5.80;4.47;;;;;;;31.61;57.23;97963.34;4207504;28;20657;-73
2023/07/19 08:58:25;;;;;;;4.10;3.67;;;;;;;31.61;57.80;97967.91;4208076;28;20650;-73
2023/07/19 09:00:31;;;;;;;4.43;3.37;;;;;;;31.64;57.52;97967.44;4201559;28;20746;-73
2023/07/19 09:02:35;;;;;;;3.97;3.20;;;;;;;31.70;57.47;97963.78;4202825;28;21287;-73
2023/07/19 09:04:39;;;;;;;5.20;3.17;;;;;;;31.82;57.10;97957.28;4207707;28;20658;-73
2023/07/19 09:06:42;;;;;;;5.90;4.60;;;;;;;31.94;56.21;97956.19;4204186;28;20659;-73
2023/07/19 09:08:49;;;;;;;2.90;2.60;;;;;;;31.98;55.58;97949.25;4200607;28;21075;-73
2023/07/19 09:10:53;;;;;;;5.77;3.17;;;;;;;31.78;54.60;97949.91;4198479;28;20652;-73
2023/07/19 09:12:55;;;;;;;4.30;3.83;;;;;;;31.76;54.96;97946.63;4190543;28;20654;-73
2023/07/19 09:14:59;;;;;;;4.53;2.90;;;;;;;31.89;55.17;97947.97;4200189;28;20678;-73
2023/07/19 09:17:02;;;;;;;3.80;3.10;;;;;;;32.00;55.45;97939.03;4198435;28;21076;-72
2023/07/19 09:19:05;;;;;;;7.20;3.80;;;;;;;32.03;54.13;97932.31;4205934;28;20704;-72
2023/07/19 09:21:10;;;;;;;4.37;2.73;;;;;;;32.09;55.26;97936.75;4206136;28;20704;-72
2023/07/19 09:23:16;;;;;;;4.30;3.23;;;;;;;32.07;54.06;97931.59;4194706;28;21012;-72
2023/07/19 09:25:20;;;;;;;4.03;3.10;;;;;;;31.89;53.71;97926.38;4199702;28;20660;-72
2023/07/19 09:27:25;;;;;;;4.33;3.40;;;;;;;31.66;53.59;97922.13;4188732;28;20643;-72
2023/07/19 09:29:30;;;;;;;4.80;3.00;;;;;;;31.75;55.59;97918.00;4193786;28;20655;-72
2023/07/19 09:31:33;;;;;;;3.07;2.47;;;;;;;31.69;53.66;97910.84;4203908;28;20676;-72
2023/07/19 09:33:36;;;;;;;4.53;3.10;;;;;;;31.82;52.57;97914.09;4188838;28;20651;-72
2023/07/19 09:35:39;;;;;;;3.13;2.70;;;;;;;31.88;51.27;97919.31;4204143;28;20644;-72
2023/07/19 09:37:44;;;;;;;3.73;2.70;;;;;;;31.69;50.93;97910.84;4200798;28;20708;-72
2023/07/19 09:39:47;;;;;;;3.23;2.20;;;;;;;31.81;51.33;97906.22;4198356;28;20665;-72
2023/07/19 09:41:50;;;;;;;3.27;2.40;;;;;;;31.83;49.46;97907.63;4198456;28;20658;-72
2023/07/19 09:43:54;;;;;;;3.23;2.67;;;;;;;31.74;50.71;97902.84;4205612;28;20711;-72